Main page
METAR-TAF:

METAR-TAF

Airports :

Laupheim Air Base

Laupheim, Germany

latitude: 48-13N, longitude: 009-55E, elevation: 538 m

Current weather observation

The report was made 52 minutes ago, at 23:20 UTC
Wind 7 kt from the Southwest
Temperature 2°C
Humidity 87%
Pressure 1004 hPa
Visibility 10 km or more
Few clouds at a height of 800 ft
Scattered clouds at a height of 1500 ft
Broken clouds at a height of 2200 ft

METAR: ETHL 172320Z 22007KT 9999 FEW008 SCT015 BKN022 02/M00 Q1004 WHT

Time: 01:12 (00:12 UTC)


TAF: missing

Weather observations and forecasts of more than 4000 airports (METAR and TAF reports).

The available stations are represented by yellow and red dots on the map.

Hover mouse over dot to see the name of the station.

Then click to see weather observations and forecasts.

To change the map : click on the green buttons with a black cross to zoom in, on the green button with a dash to zoom out, or on the green arrows for adjacent maps.


METAR-TAF: